Time;durP1;ratioP1;P1;durP2;ratioP2;P2;SDS_P1;SDS_P2;PMS_P1;PMS_P2;Temp;Humidity;BMP_temperature;BMP_pressure;BME280_temperature;BME280_humidity;BME280_pressure;Samples;Min_cycle;Max_cycle;Signal;HPM_P1;HPM_P2
2021/12/26 00:00:19;;;;;;;33.85;6.28;;;10.90;99.90;;;10.24;100.00;99835.34;4168950;28;20598;-64
2021/12/26 00:02:20;;;;;;;23.80;6.70;;;10.90;99.90;;;10.20;100.00;99820.88;4152596;28;20100;-64
2021/12/26 00:04:21;;;;;;;32.55;6.10;;;10.90;99.90;;;10.18;100.00;99822.88;4169687;28;20535;-64
2021/12/26 00:06:27;;;;;;;34.38;7.32;;;11.00;99.90;;;10.15;100.00;99836.41;4170041;28;20025;-64
2021/12/26 00:08:28;;;;;;;29.45;7.90;;;10.90;99.90;;;10.16;100.00;99831.94;4169058;28;20028;-64
2021/12/26 00:10:29;;;;;;;28.67;6.13;;;11.00;99.90;;;10.26;100.00;99840.44;4152435;28;20018;-64
2021/12/26 00:12:30;;;;;;;26.17;5.80;;;11.00;99.90;;;10.27;100.00;99836.81;4191528;28;20025;-64
2021/12/26 00:14:31;;;;;;;24.30;5.05;;;10.90;99.90;;;10.21;100.00;99834.88;4165760;28;20040;-64
2021/12/26 00:16:32;;;;;;;19.52;5.22;;;10.90;99.90;;;10.25;100.00;99831.72;4170023;28;20033;-64
2021/12/26 00:18:34;;;;;;;26.23;5.00;;;11.00;99.90;;;10.25;100.00;99833.50;4168802;28;20416;-64
2021/12/26 00:20:38;;;;;;;33.92;6.35;;;11.00;99.90;;;10.25;100.00;99826.44;4169636;28;20037;-64
2021/12/26 00:22:39;;;;;;;25.73;7.10;;;11.10;99.90;;;10.24;100.00;99831.91;4168426;28;20021;-64
2021/12/26 00:24:40;;;;;;;18.92;4.75;;;11.00;99.90;;;10.24;100.00;99829.25;4169863;28;20041;-64
2021/12/26 00:26:41;;;;;;;22.35;6.63;;;11.40;99.90;;;10.29;100.00;99816.38;4169879;28;20097;-64
2021/12/26 00:28:43;;;;;;;36.17;7.35;;;10.50;99.90;;;10.21;100.00;99821.72;4168586;28;20045;-64
2021/12/26 00:30:45;;;;;;;18.15;5.07;;;11.00;99.90;;;10.17;100.00;99830.94;4168505;28;20056;-64
2021/12/26 00:32:47;;;;;;;22.40;5.85;;;11.00;99.90;;;10.22;100.00;99826.78;4169791;28;20040;-64
2021/12/26 00:34:50;;;;;;;29.73;7.13;;;11.00;99.90;;;10.25;100.00;99833.50;4169513;28;20152;-64
2021/12/26 00:36:51;;;;;;;42.45;8.38;;;11.00;99.90;;;10.22;100.00;99820.69;4169691;28;20052;-64
2021/12/26 00:38:52;;;;;;;18.40;6.03;;;11.00;99.90;;;10.25;100.00;99836.16;4169602;28;20029;-64
2021/12/26 00:40:53;;;;;;;29.77;7.28;;;11.00;99.90;;;10.35;100.00;99824.41;4169667;28;20040;-64
2021/12/26 00:42:56;;;;;;;34.13;8.70;;;11.00;99.90;;;10.29;100.00;99837.44;4168380;28;20025;-64
2021/12/26 00:44:57;;;;;;;24.90;6.72;;;11.00;99.90;;;10.35;100.00;99834.94;4168265;28;20033;-64
2021/12/26 00:46:58;;;;;;;47.05;8.27;;;11.10;99.90;;;10.45;100.00;99840.78;4168305;28;20707;-65
2021/12/26 00:48:59;;;;;;;51.92;9.40;;;11.10;99.90;;;10.38;100.00;99839.84;4154062;28;20064;-64
2021/12/26 00:51:00;;;;;;;35.45;7.63;;;11.10;99.90;;;10.31;100.00;99838.09;4169456;28;20022;-64
2021/12/26 00:53:02;;;;;;;37.95;7.88;;;11.10;99.90;;;10.32;100.00;99842.38;4169374;28;20080;-64
2021/12/26 00:55:08;;;;;;;30.73;5.88;;;11.10;99.90;;;10.33;100.00;99844.03;4168088;28;20030;-64
2021/12/26 00:57:09;;;;;;;24.52;6.47;;;11.10;99.90;;;10.34;100.00;99846.47;4184159;28;20516;-64
2021/12/26 00:59:10;;;;;;;24.85;5.47;;;11.10;99.90;;;10.31;100.00;99844.19;4169307;28;20032;-64
2021/12/26 01:01:11;;;;;;;30.05;6.20;;;11.10;99.90;;;10.30;100.00;99854.91;4169168;28;20033;-64
2021/12/26 01:03:15;;;;;;;19.98;4.85;;;11.10;99.90;;;10.29;100.00;99854.09;4169123;28;20104;-64
2021/12/26 01:05:17;;;;;;;19.77;6.32;;;11.10;99.90;;;10.32;100.00;99856.38;4167248;28;20103;-64
2021/12/26 01:07:33;;;;;;;24.77;5.95;;;11.10;99.90;;;10.40;100.00;99866.03;4169204;28;20029;-64
2021/12/26 01:09:35;;;;;;;19.00;4.78;;;11.20;99.90;;;10.35;100.00;99848.13;4169118;28;20080;-64
2021/12/26 01:11:39;;;;;;;18.25;6.22;;;11.10;99.90;;;10.35;100.00;99863.13;4168083;28;20029;-64
2021/12/26 01:13:41;;;;;;;31.27;6.05;;;11.10;99.90;;;10.38;100.00;99865.41;4167990;28;20033;-64
2021/12/26 01:15:44;;;;;;;28.98;5.30;;;11.20;99.90;;;10.36;100.00;99864.75;4167878;28;20035;-64
2021/12/26 01:17:46;;;;;;;30.00;6.28;;;11.20;99.90;;;10.28;100.00;99854.25;4168962;28;20037;-64
2021/12/26 01:19:51;;;;;;;24.67;6.22;;;11.10;99.90;;;10.41;100.00;99863.22;4168811;28;20474;-64
2021/12/26 01:21:53;;;;;;;28.70;5.20;;;11.20;99.90;;;10.40;100.00;99863.41;4177281;28;20021;-64
2021/12/26 01:23:59;;;;;;;35.30;7.65;;;11.20;99.90;;;10.45;100.00;99861.06;4162986;28;20474;-64
2021/12/26 01:26:00;;;;;;;33.38;5.93;;;11.20;99.90;;;10.43;100.00;99863.03;4167589;28;20044;-64
2021/12/26 01:28:03;;;;;;;37.50;6.28;;;11.20;99.90;;;10.46;100.00;99870.59;4168928;28;20025;-64
2021/12/26 01:30:06;;;;;;;42.45;7.82;;;11.20;99.90;;;10.50;100.00;99877.16;4167775;28;20025;-64
2021/12/26 01:32:07;;;;;;;32.53;6.03;;;11.10;99.90;;;10.47;100.00;99865.16;4168941;28;20393;-64
2021/12/26 01:34:08;;;;;;;38.97;6.40;;;11.20;99.90;;;10.43;100.00;99868.31;4168409;28;20017;-64
2021/12/26 01:36:09;;;;;;;33.70;5.78;;;11.30;99.90;;;10.46;100.00;99868.78;4167668;28;20029;-64
2021/12/26 01:38:14;;;;;;;41.80;7.15;;;11.30;99.90;;;10.44;100.00;99869.97;4167631;28;20040;-64
2021/12/26 01:40:16;;;;;;;26.75;6.10;;;10.80;99.90;;;10.47;100.00;99869.63;4167593;28;20037;-64
2021/12/26 01:42:17;;;;;;;27.63;6.07;;;11.20;99.90;;;10.43;100.00;99860.41;4167434;28;20433;-64
2021/12/26 01:44:18;;;;;;;22.17;5.13;;;11.30;99.90;;;10.45;100.00;99866.34;4168701;28;20025;-64
2021/12/26 01:46:19;;;;;;;23.65;5.07;;;11.30;99.90;;;10.41;100.00;99865.88;4168724;28;20056;-63
2021/12/26 01:48:22;;;;;;;19.80;3.97;;;11.20;99.90;;;10.40;100.00;99869.50;4168609;28;20025;-64
2021/12/26 01:50:23;;;;;;;18.38;3.70;;;11.30;99.90;;;10.42;100.00;99867.50;4168221;28;20393;-64
2021/12/26 01:52:24;;;;;;;20.73;3.60;;;11.20;99.90;;;10.45;100.00;99868.97;4168702;28;20049;-64
2021/12/26 01:54:45;;;;;;;21.75;3.90;;;11.30;99.90;;;10.44;100.00;99868.16;4168656;28;20030;-64
2021/12/26 01:56:46;;;;;;;17.92;4.07;;;11.30;99.90;;;10.45;100.00;99876.88;4167514;28;20025;-64
2021/12/26 01:58:46;;;;;;;21.95;5.30;;;11.30;99.90;;;10.45;100.00;99876.88;4168773;28;20060;-64
2021/12/26 02:00:56;;;;;;;28.52;4.53;;;11.70;99.90;;;10.44;100.00;99885.78;4167365;28;20026;-64
2021/12/26 02:02:57;;;;;;;25.73;4.60;;;11.30;99.90;;;10.50;100.00;99874.53;4168568;28;20033;-64
2021/12/26 02:04:58;;;;;;;32.03;5.38;;;11.30;99.90;;;10.45;100.00;99888.22;4166094;28;20451;-64
2021/12/26 02:07:02;;;;;;;33.45;6.00;;;11.30;99.90;;;10.51;100.00;99884.88;4172567;28;20029;-64
2021/12/26 02:09:04;;;;;;;43.00;6.45;;;11.30;99.90;;;10.46;100.00;99892.53;4168491;28;20075;-64
2021/12/26 02:11:05;;;;;;;35.03;6.47;;;11.30;99.90;;;10.44;100.00;99896.34;4167240;28;20036;-64
2021/12/26 02:13:06;;;;;;;26.52;6.03;;;11.40;99.90;;;10.47;100.00;99893.34;4168282;28;20057;-64
2021/12/26 02:15:09;;;;;;;41.80;6.05;;;11.30;99.90;;;10.44;100.00;99885.78;4168491;28;20041;-64
2021/12/26 02:17:10;;;;;;;35.92;6.15;;;11.30;99.90;;;10.46;100.00;99883.78;4167345;28;20030;-64
2021/12/26 02:19:11;;;;;;;28.40;4.72;;;11.30;99.90;;;10.37;100.00;99884.84;4166939;28;20067;-64
2021/12/26 02:27:46;;;;;;;17.98;4.03;;;11.20;99.90;;;10.23;100.00;99904.03;4167236;28;20080;-66
2021/12/26 02:29:47;;;;;;;15.63;3.45;;;11.10;99.90;;;10.21;100.00;99895.50;4168400;28;20552;-66
2021/12/26 02:31:48;;;;;;;13.63;2.80;;;11.00;99.90;;;10.16;100.00;99903.09;4168340;28;20036;-66
2021/12/26 02:33:49;;;;;;;15.68;2.75;;;11.00;99.90;;;10.07;100.00;99909.38;4166804;28;20049;-66
2021/12/26 02:35:51;;;;;;;12.65;3.30;;;11.00;99.90;;;10.09;100.00;99920.56;4184566;28;20040;-63
2021/12/26 02:37:52;;;;;;;19.15;4.13;;;10.90;99.90;;;10.12;100.00;99910.50;4157564;28;20029;-64
2021/12/26 02:39:54;;;;;;;17.50;3.00;;;10.90;99.90;;;10.15;100.00;99906.75;4168267;28;20467;-64
2021/12/26 02:41:55;;;;;;;13.65;3.28;;;10.90;99.90;;;10.11;100.00;99915.94;4168253;28;20040;-64
2021/12/26 02:43:56;;;;;;;12.40;2.70;;;10.90;99.90;;;10.13;100.00;99919.22;4168039;28;20029;-64
2021/12/26 02:45:57;;;;;;;17.08;3.15;;;10.90;99.90;;;10.13;100.00;99904.25;4168244;28;20033;-64
2021/12/26 02:47:58;;;;;;;14.00;2.42;;;10.90;99.90;;;10.03;100.00;99907.06;4168230;28;20061;-64
2021/12/26 02:50:21;;;;;;;8.27;1.98;;;10.80;99.90;;;10.01;100.00;99900.34;4166738;28;20520;-64
2021/12/26 02:52:22;;;;;;;13.32;2.40;;;10.80;99.90;;;10.02;100.00;99886.19;4168246;28;20025;-64
2021/12/26 02:54:24;;;;;;;12.20;1.90;;;10.80;99.90;;;10.09;100.00;99896.84;4168191;28;20080;-64
2021/12/26 02:56:26;;;;;;;8.13;2.10;;;10.80;99.90;;;9.96;100.00;99903.50;4166919;28;20049;-64
2021/12/26 02:58:28;;;;;;;9.45;2.08;;;10.80;99.90;;;9.82;100.00;99901.59;4166948;28;20025;-64
2021/12/26 03:00:34;;;;;;;13.68;2.10;;;10.60;99.90;;;9.83;100.00;99903.22;4166759;28;20128;-64
2021/12/26 03:02:38;;;;;;;7.97;2.13;;;10.60;99.90;;;9.80;100.00;99902.75;4166914;28;20022;-64
2021/12/26 03:04:39;;;;;;;11.63;2.03;;;10.50;99.90;;;9.74;100.00;99904.25;4167610;28;20054;-64
2021/12/26 03:07:01;;;;;;;10.73;2.97;;;10.50;99.90;;;9.71;100.00;99911.66;4153403;28;20101;-64
2021/12/26 03:09:04;;;;;;;6.20;2.15;;;10.50;99.90;;;9.78;100.00;99907.38;4167189;28;20052;-64
2021/12/26 03:11:05;;;;;;;9.43;2.15;;;10.40;99.90;;;9.74;100.00;99917.41;4166909;28;20025;-64
2021/12/26 03:13:09;;;;;;;12.05;2.63;;;10.40;99.90;;;9.71;100.00;99920.41;4169029;28;20026;-64
2021/12/26 03:15:11;;;;;;;5.40;1.58;;;10.40;99.90;;;9.71;100.00;99928.28;4169857;28;20052;-64
2021/12/26 03:17:13;;;;;;;11.98;2.78;;;10.40;99.90;;;9.65;100.00;99926.34;4169794;28;20595;-64
2021/12/26 03:19:14;;;;;;;13.52;3.53;;;10.40;99.90;;;9.63;100.00;99928.34;4170728;28;20032;-64
2021/12/26 03:21:15;;;;;;;17.80;3.20;;;10.40;99.90;;;9.71;100.00;99925.66;4170663;28;20455;-64
2021/12/26 03:23:20;;;;;;;18.00;2.88;;;10.40;99.90;;;9.72;100.00;99922.06;4169729;28;20108;-64
2021/12/26 03:25:23;;;;;;;16.60;3.47;;;10.40;99.90;;;9.77;100.00;99914.44;4193089;28;20037;-64
2021/12/26 03:27:24;;;;;;;16.45;3.70;;;10.50;99.90;;;9.73;100.00;99910.53;4165930;28;20025;-64
2021/12/26 03:29:24;;;;;;;10.80;2.60;;;10.40;99.90;;;9.77;100.00;99908.34;4169632;28;20546;-64
2021/12/26 03:31:25;;;;;;;24.17;3.72;;;10.40;99.90;;;9.81;100.00;99901.75;4153141;28;20014;-64
2021/12/26 03:33:28;;;;;;;18.85;3.83;;;10.40;99.90;;;9.86;100.00;99910.78;4170740;28;20056;-64
2021/12/26 03:35:30;;;;;;;18.63;3.72;;;10.50;99.90;;;9.78;100.00;99907.38;4169202;28;20049;-64
2021/12/26 03:37:32;;;;;;;22.38;4.15;;;10.50;99.90;;;9.81;100.00;99909.66;4169470;28;20033;-64
2021/12/26 03:39:33;;;;;;;19.85;4.03;;;10.50;99.90;;;9.72;100.00;99908.06;4169381;28;20025;-64
2021/12/26 03:41:34;;;;;;;24.65;3.67;;;10.50;99.90;;;9.70;100.00;99905.59;4170665;28;20029;-64
2021/12/26 03:43:35;;;;;;;22.30;3.47;;;10.40;99.90;;;9.71;100.00;99915.13;4170464;28;20048;-64
2021/12/26 03:45:42;;;;;;;22.42;4.10;;;10.40;99.90;;;9.73;100.00;99923.69;4169319;28;20100;-64
2021/12/26 03:47:45;;;;;;;27.02;5.47;;;10.40;99.90;;;9.64;100.00;99908.91;4169156;28;20029;-65
2021/12/26 03:49:48;;;;;;;25.45;3.97;;;10.40;99.90;;;9.68;100.00;99907.56;4170190;28;20397;-64
2021/12/26 03:51:49;;;;;;;24.63;5.03;;;10.40;99.90;;;9.69;100.00;99911.84;4170272;28;20022;-64
2021/12/26 03:53:50;;;;;;;19.88;3.88;;;10.30;99.90;;;9.70;100.00;99908.25;4169337;28;20056;-64
2021/12/26 03:55:52;;;;;;;27.05;4.32;;;10.30;99.90;;;9.68;100.00;99912.00;4169228;28;20036;-64
2021/12/26 03:57:54;;;;;;;28.45;5.40;;;10.30;99.90;;;9.68;100.00;99915.47;4169211;28;20032;-64
2021/12/26 03:59:55;;;;;;;27.83;5.75;;;10.40;99.90;;;9.69;100.00;99908.41;4169039;28;20524;-64
2021/12/26 04:01:56;;;;;;;27.33;5.25;;;10.50;99.90;;;9.75;100.00;99908.53;4170361;28;20065;-64
2021/12/26 04:03:57;;;;;;;35.33;5.53;;;10.40;99.90;;;9.67;100.00;99903.31;4169840;28;20385;-64
2021/12/26 04:05:58;;;;;;;28.92;6.18;;;10.30;99.90;;;9.70;100.00;99900.34;4158907;28;20056;-64
2021/12/26 04:08:00;;;;;;;29.33;4.90;;;10.40;99.90;;;9.61;100.00;99897.91;4167077;28;20024;-64
2021/12/26 04:10:01;;;;;;;29.80;4.80;;;10.30;99.90;;;9.60;100.00;99906.78;4170259;28;20033;-64
2021/12/26 04:12:03;;;;;;;32.55;4.88;;;10.30;99.90;;;9.67;100.00;99902.50;4170138;28;20018;-64
2021/12/26 04:14:03;;;;;;;33.75;6.28;;;10.30;99.90;;;9.68;100.00;99904.94;4170114;28;20456;-64
2021/12/26 04:16:05;;;;;;;43.65;7.82;;;10.30;99.90;;;9.68;100.00;99907.56;4170020;28;20061;-64
2021/12/26 04:18:06;;;;;;;31.90;5.43;;;10.40;99.90;;;9.73;100.00;99901.81;4152445;28;20041;-64
2021/12/26 04:20:09;;;;;;;43.55;5.57;;;10.40;99.90;;;9.76;100.00;99918.09;4168556;28;20096;-64
2021/12/26 04:22:10;;;;;;;43.30;6.53;;;10.40;99.90;;;9.76;100.00;99902.28;4168729;28;20081;-64
2021/12/26 04:24:11;;;;;;;41.88;6.72;;;9.60;99.90;;;9.78;100.00;99900.31;4168666;28;20036;-64
2021/12/26 04:26:12;;;;;;;32.25;5.45;;;10.50;99.90;;;9.77;100.00;99903.09;4169926;28;20022;-64
2021/12/26 04:28:17;;;;;;;44.15;6.35;;;10.50;99.90;;;9.83;100.00;99916.41;4169866;28;20025;-64
2021/12/26 04:30:19;;;;;;;30.23;6.68;;;10.50;99.90;;;9.87;100.00;99904.53;4169788;28;20033;-64
2021/12/26 04:32:21;;;;;;;37.10;5.88;;;10.60;99.90;;;9.91;100.00;99895.31;4168445;28;20584;-64
2021/12/26 04:34:22;;;;;;;34.00;6.97;;;10.60;99.90;;;9.90;100.00;99892.84;4169559;28;20029;-64
2021/12/26 04:36:23;;;;;;;36.58;6.13;;;10.60;99.90;;;9.91;100.00;99895.31;4185003;28;20393;-64
2021/12/26 04:38:24;;;;;;;35.00;5.53;;;10.70;99.90;;;10.00;100.00;99904.00;4169673;28;20029;-64
2021/12/26 04:40:25;;;;;;;47.10;6.80;;;10.70;99.90;;;9.95;100.00;99896.59;4169539;28;20448;-64
2021/12/26 04:42:26;;;;;;;43.83;7.22;;;10.70;99.90;;;9.96;100.00;99903.50;4168362;28;20053;-64
2021/12/26 04:44:27;;;;;;;52.45;6.22;;;10.70;99.90;;;9.92;100.00;99902.19;4169567;28;20068;-64
2021/12/26 04:46:28;;;;;;;34.30;6.90;;;10.70;99.90;;;10.00;100.00;99904.78;4168407;28;20026;-64
2021/12/26 04:48:29;;;;;;;30.05;6.00;;;10.70;99.90;;;10.01;100.00;99906.44;4169449;28;20440;-64
2021/12/26 04:50:30;;;;;;;30.80;5.63;;;10.70;99.90;;;9.99;100.00;99923.41;4169350;28;20029;-64
2021/12/26 04:52:31;;;;;;;37.90;5.18;;;10.70;99.90;;;9.99;100.00;99912.88;4169489;28;20037;-64
2021/12/26 04:54:32;;;;;;;50.33;7.10;;;10.80;99.90;;;10.06;100.00;99915.66;4168308;28;20065;-64
2021/12/26 04:56:34;;;;;;;47.75;6.70;;;10.80;99.90;;;10.16;100.00;99916.25;4168182;28;20096;-64
2021/12/26 04:58:35;;;;;;;34.72;5.78;;;10.80;99.90;;;10.10;100.00;99916.94;4168232;28;20100;-64
2021/12/26 05:00:37;;;;;;;36.78;7.30;;;10.80;99.90;;;10.08;100.00;99924.19;4168194;28;20064;-64
2021/12/26 05:02:39;;;;;;;40.60;6.60;;;10.80;99.90;;;10.02;100.00;99923.06;4168149;28;20018;-64
2021/12/26 05:04:41;;;;;;;48.28;7.47;;;10.80;99.90;;;10.05;100.00;99930.63;4168737;28;20049;-64
2021/12/26 05:06:42;;;;;;;32.15;6.03;;;10.80;99.90;;;10.03;100.00;99914.97;4154764;28;20041;-64
2021/12/26 05:08:43;;;;;;;25.73;5.95;;;10.80;99.90;;;10.15;100.00;99914.66;4167929;28;20025;-64
2021/12/26 05:10:45;;;;;;;35.83;6.65;;;10.80;99.90;;;10.02;100.00;99907.25;4168032;28;20092;-64
2021/12/26 05:12:47;;;;;;;33.75;6.53;;;10.80;99.90;;;10.07;100.00;99917.28;4167861;28;20077;-64
2021/12/26 05:14:48;;;;;;;32.42;5.03;;;10.90;99.90;;;10.00;100.00;99906.63;4169074;28;20079;-64
2021/12/26 05:16:49;;;;;;;31.27;5.40;;;10.90;99.90;;;10.06;100.00;99907.75;4169084;28;20029;-64
2021/12/26 05:18:50;;;;;;;31.40;5.70;;;10.90;99.90;;;10.10;100.00;99904.56;4168703;28;20033;-64
2021/12/26 05:20:51;;;;;;;26.38;6.22;;;10.90;99.90;;;10.09;100.00;99907.41;4169054;28;20033;-64
2021/12/26 05:22:54;;;;;;;26.55;5.55;;;10.90;99.90;;;10.08;100.00;99909.22;4167653;28;20120;-64
2021/12/26 05:24:55;;;;;;;32.42;6.13;;;10.90;99.90;;;10.01;100.00;99916.97;4168947;28;20037;-64
2021/12/26 05:26:56;;;;;;;28.58;6.53;;;10.90;99.90;;;10.02;100.00;99916.00;4168965;28;20033;-65
2021/12/26 05:28:57;;;;;;;34.50;5.80;;;10.80;99.90;;;10.09;100.00;99912.66;4167820;28;20104;-66
2021/12/26 05:30:58;;;;;;;32.38;4.95;;;11.10;99.90;;;10.06;100.00;99915.66;4168716;28;20022;-66
2021/12/26 05:32:59;;;;;;;26.63;5.72;;;10.90;99.90;;;10.07;100.00;99923.38;4168950;28;20071;-66
2021/12/26 05:35:00;;;;;;;21.13;5.35;;;10.90;99.90;;;10.05;100.00;99920.09;4167033;28;20022;-66
2021/12/26 05:37:01;;;;;;;33.85;6.43;;;10.90;99.90;;;10.01;100.00;99921.41;4168896;28;20063;-66
2021/12/26 05:39:02;;;;;;;37.58;7.10;;;10.90;99.90;;;10.02;100.00;99920.44;4168629;28;20028;-66
2021/12/26 05:41:03;;;;;;;33.72;5.93;;;11.40;99.90;;;10.06;100.00;99916.47;4167653;28;20496;-66
2021/12/26 05:43:04;;;;;;;30.85;5.60;;;10.80;99.90;;;9.98;100.00;99922.59;4167494;28;20025;-66
2021/12/26 05:45:08;;;;;;;34.03;6.28;;;10.90;99.90;;;10.07;100.00;99930.44;4168639;28;20037;-66
2021/12/26 05:47:09;;;;;;;25.83;5.80;;;10.80;99.90;;;10.05;100.00;99929.81;4168565;28;20029;-66
2021/12/26 05:49:10;;;;;;;30.33;7.28;;;10.90;99.90;;;10.06;100.00;99934.09;4183682;28;20032;-66
2021/12/26 05:51:11;;;;;;;26.80;4.85;;;10.80;99.90;;;10.05;100.00;99938.53;4168698;28;20018;-66
2021/12/26 05:53:12;;;;;;;36.78;6.80;;;10.80;99.90;;;10.05;100.00;99942.97;4168647;28;20077;-66
2021/12/26 05:55:13;;;;;;;39.15;6.15;;;10.90;99.90;;;10.07;100.00;99951.53;4168500;28;20040;-66
2021/12/26 05:57:15;;;;;;;34.08;7.00;;;10.90;99.90;;;9.98;100.00;99933.13;4167467;28;20037;-66
2021/12/26 05:59:16;;;;;;;37.00;6.70;;;10.80;99.90;;;10.06;100.00;99942.00;4168580;28;20505;-66
2021/12/26 06:01:17;;;;;;;32.95;6.20;;;10.80;99.90;;;10.05;100.00;99932.44;4168509;28;20075;-66
2021/12/26 06:03:18;;;;;;;45.15;7.68;;;10.90;99.90;;;10.02;100.00;99926.53;4167257;28;20029;-66
2021/12/26 06:05:20;;;;;;;29.65;5.78;;;10.80;99.90;;;10.00;100.00;99923.22;4167956;28;20060;-66
2021/12/26 06:07:21;;;;;;;28.67;5.50;;;10.80;99.90;;;9.99;100.00;99918.97;4167279;28;20021;-66
2021/12/26 06:09:22;;;;;;;31.05;6.15;;;10.80;99.90;;;10.02;100.00;99923.91;4188832;28;20581;-66
2021/12/26 06:11:23;;;;;;;30.80;5.35;;;10.80;99.90;;;9.98;100.00;99925.22;4166654;28;20435;-66
2021/12/26 06:13:24;;;;;;;34.40;6.55;;;10.80;99.90;;;10.02;100.00;99923.91;4167349;28;20044;-66
2021/12/26 06:15:25;;;;;;;30.08;5.78;;;10.80;99.90;;;10.03;100.00;99917.63;4168387;28;20029;-66
2021/12/26 06:17:26;;;;;;;32.03;6.75;;;10.80;99.90;;;10.12;100.00;99917.59;4168346;28;20037;-66
2021/12/26 06:19:27;;;;;;;32.72;6.05;;;10.80;99.90;;;10.09;100.00;99918.75;4167980;28;20516;-66
2021/12/26 06:21:28;;;;;;;32.50;5.53;;;10.80;99.90;;;10.01;100.00;99905.59;4168359;28;20079;-66
2021/12/26 06:23:29;;;;;;;23.42;5.88;;;10.80;99.90;;;10.09;100.00;99912.66;4167188;28;20464;-66
2021/12/26 06:25:30;;;;;;;25.60;5.03;;;10.90;99.90;;;10.06;100.00;99905.94;4168197;28;20040;-66
2021/12/26 06:27:34;;;;;;;36.90;6.30;;;10.90;99.90;;;10.12;100.00;99912.31;4166966;28;20107;-66
2021/12/26 06:29:35;;;;;;;43.38;6.03;;;10.90;99.90;;;10.03;100.00;99914.97;4168354;28;20109;-66
2021/12/26 06:31:36;;;;;;;37.10;6.63;;;10.90;99.90;;;10.06;100.00;99918.28;4167085;28;20087;-66
2021/12/26 06:33:38;;;;;;;22.15;4.65;;;10.80;99.90;;;10.01;100.00;99919.59;4167912;28;20029;-66
2021/12/26 06:35:39;;;;;;;36.60;5.45;;;10.80;99.90;;;9.95;100.00;99927.38;4166940;28;20493;-66
2021/12/26 06:37:41;;;;;;;31.63;6.30;;;10.70;99.90;;;9.95;100.00;99928.19;4168283;28;20040;-66
2021/12/26 06:39:42;;;;;;;24.45;6.47;;;10.70;99.90;;;9.90;100.00;99932.34;4167021;28;20063;-66
2021/12/26 06:41:42;;;;;;;33.50;5.60;;;10.80;99.90;;;9.93;100.00;99924.09;4168137;28;20396;-66
2021/12/26 06:43:44;;;;;;;32.45;5.53;;;10.60;99.90;;;9.91;100.00;99915.56;4167961;28;20071;-66
2021/12/26 06:45:45;;;;;;;31.92;6.00;;;10.70;99.90;;;10.01;100.00;99926.69;4166897;28;20030;-64
2021/12/26 06:47:51;;;;;;;33.22;5.53;;;10.70;99.90;;;9.98;100.00;99929.66;4168727;28;20057;-64
2021/12/26 06:49:52;;;;;;;36.78;5.30;;;10.70;99.90;;;9.96;100.00;99926.38;4169867;28;20025;-65
2021/12/26 06:51:53;;;;;;;25.58;4.93;;;10.70;99.90;;;10.00;100.00;99922.44;4171070;28;20488;-65
2021/12/26 06:53:54;;;;;;;25.65;6.28;;;10.70;99.90;;;9.99;100.00;99920.78;4171287;28;20083;-65
2021/12/26 06:55:55;;;;;;;22.55;4.70;;;10.70;99.90;;;10.00;100.00;99910.06;4169948;28;20029;-65
2021/12/26 06:57:56;;;;;;;28.67;6.00;;;10.70;99.90;;;10.00;100.00;99920.59;4171072;28;20504;-64
2021/12/26 06:59:56;;;;;;;33.28;6.45;;;10.80;99.90;;;10.00;100.00;99914.53;4169791;28;20032;-65
2021/12/26 07:01:57;;;;;;;35.65;6.93;;;10.80;99.90;;;9.96;100.00;99929.84;4198904;28;20041;-65
2021/12/26 07:03:58;;;;;;;32.75;7.32;;;10.80;99.90;;;10.00;100.00;99927.69;4161723;28;20080;-64
2021/12/26 07:05:59;;;;;;;30.77;5.70;;;10.80;99.90;;;10.02;100.00;99923.91;4159497;28;20021;-64
2021/12/26 07:08:01;;;;;;;39.40;7.05;;;10.80;99.90;;;10.01;100.00;99922.25;4199744;28;20025;-64
2021/12/26 07:10:03;;;;;;;36.47;7.35;;;10.80;99.90;;;10.07;100.00;99919.91;4169881;28;20579;-64
2021/12/26 07:12:04;;;;;;;27.63;6.50;;;10.70;99.90;;;10.06;100.00;99928.81;4170915;28;20064;-64
2021/12/26 07:14:05;;;;;;;33.72;6.05;;;10.70;99.90;;;9.96;100.00;99929.03;4170807;28;20026;-64
2021/12/26 07:16:06;;;;;;;46.20;7.05;;;10.80;99.90;;;9.91;100.00;99940.09;4169334;28;20428;-64
2021/12/26 07:18:07;;;;;;;26.50;5.05;;;10.70;99.90;;;9.96;100.00;99939.56;4170850;28;20033;-64
2021/12/26 07:20:11;;;;;;;29.13;5.80;;;10.80;99.90;;;10.01;100.00;99937.22;4169265;28;20034;-64
2021/12/26 07:22:12;;;;;;;27.53;4.73;;;10.80;99.90;;;10.03;100.00;99941.31;4201799;28;20118;-64
2021/12/26 07:24:12;;;;;;;22.85;5.55;;;10.30;99.90;;;10.04;100.00;99936.88;4170583;28;20038;-64
2021/12/26 07:26:13;;;;;;;30.02;6.95;;;10.80;99.90;;;10.14;100.00;99931.44;4169471;28;20057;-64
2021/12/26 07:28:14;;;;;;;28.70;6.45;;;10.90;99.90;;;10.09;100.00;99934.56;4169456;28;20025;-64
2021/12/26 07:30:15;;;;;;;41.88;6.65;;;10.90;99.90;;;10.10;100.00;99945.91;4170576;28;20393;-64
2021/12/26 07:32:16;;;;;;;33.60;5.63;;;10.80;99.90;;;10.05;100.00;99956.16;4170441;28;20049;-64
2021/12/26 07:34:17;;;;;;;36.75;5.88;;;10.80;99.90;;;10.10;100.00;99961.72;4169025;28;20026;-64
2021/12/26 07:36:18;;;;;;;31.20;6.10;;;10.90;99.90;;;10.15;100.00;99969.97;4170521;28;20444;-64
2021/12/26 07:38:19;;;;;;;32.55;6.20;;;10.90;99.90;;;10.12;100.00;99955.31;4170450;28;20385;-64
2021/12/26 07:40:21;;;;;;;37.70;6.80;;;11.40;99.90;;;10.12;100.00;99959.75;4169106;28;20029;-64
2021/12/26 07:42:22;;;;;;;47.60;7.05;;;10.90;99.90;;;10.26;100.00;99961.69;4170445;28;20515;-64
2021/12/26 07:44:23;;;;;;;36.75;6.30;;;10.90;99.90;;;10.24;100.00;99963.69;4170370;28;20029;-64
2021/12/26 07:46:24;;;;;;;28.23;6.35;;;11.00;99.90;;;10.21;100.00;99959.59;4169040;28;20115;-64
2021/12/26 07:48:25;;;;;;;21.88;4.43;;;11.00;99.90;;;10.19;100.00;99950.19;4188001;28;20484;-64
2021/12/26 07:50:26;;;;;;;30.40;6.20;;;11.00;99.90;;;10.16;100.00;99950.53;4156227;28;20088;-64
2021/12/26 07:52:32;;;;;;;31.15;5.00;;;10.90;99.90;;;10.20;100.00;99946.56;4169083;28;20056;-64
2021/12/26 07:54:33;;;;;;;30.02;5.82;;;11.00;99.90;;;10.19;100.00;99950.19;4170240;28;20029;-64
2021/12/26 07:56:34;;;;;;;30.02;4.95;;;11.00;99.90;;;10.19;100.00;99958.09;4170008;28;20048;-64
2021/12/26 07:58:34;;;;;;;25.55;4.60;;;11.00;99.90;;;10.19;100.00;99960.72;4169885;28;20028;-64
2021/12/26 08:00:36;;;;;;;26.25;5.15;;;11.00;99.90;;;10.27;100.00;99958.06;4168951;28;20021;-64
2021/12/26 08:02:37;;;;;;;39.92;5.88;;;11.00;99.90;;;10.27;100.00;99965.97;4168852;28;20052;-64
2021/12/26 08:04:38;;;;;;;20.05;4.90;;;11.00;99.90;;;10.26;100.00;99961.69;4168257;28;20073;-64
2021/12/26 08:06:40;;;;;;;25.52;4.80;;;11.00;99.90;;;10.25;100.00;99966.13;4155658;28;20033;-64
2021/12/26 08:08:42;;;;;;;27.77;5.18;;;11.00;99.90;;;10.22;100.00;99963.84;4168893;28;20082;-64
2021/12/26 08:10:43;;;;;;;28.48;5.22;;;11.00;99.90;;;10.24;100.00;99967.16;4168843;28;20477;-64
2021/12/26 08:12:44;;;;;;;28.77;6.03;;;11.00;99.90;;;10.23;100.00;99967.31;4169958;28;20022;-64
2021/12/26 08:14:45;;;;;;;18.55;3.80;;;11.10;99.90;;;10.23;100.00;99977.84;4151990;28;20034;-64
2021/12/26 08:16:46;;;;;;;29.13;5.68;;;11.00;99.90;;;10.29;100.00;99977.16;4169863;28;20028;-64
2021/12/26 08:18:47;;;;;;;22.23;4.88;;;11.00;99.90;;;10.28;100.00;99986.03;4169580;28;20025;-64
2021/12/26 08:20:48;;;;;;;24.63;4.57;;;11.10;99.90;;;10.32;100.00;99971.53;4168633;28;20037;-64
2021/12/26 08:22:49;;;;;;;28.08;4.47;;;11.00;99.90;;;10.34;100.00;99965.09;4168343;28;20035;-64
2021/12/26 08:24:51;;;;;;;29.65;4.55;;;11.10;99.90;;;10.30;100.00;99957.72;4169734;28;20041;-64
2021/12/26 08:26:53;;;;;;;29.02;4.72;;;11.10;99.90;;;10.28;100.00;99954.41;4169635;28;20037;-64
2021/12/26 08:28:54;;;;;;;25.48;6.00;;;11.00;99.90;;;10.25;100.00;99954.75;4168396;28;20533;-64